Time;durP1;ratioP1;P1;durP2;ratioP2;P2;SDS_P1;SDS_P2;PMS_P1;PMS_P2;Temp;Humidity;BMP_temperature;BMP_pressure;BME280_temperature;BME280_humidity;BME280_pressure;Samples;Min_cycle;Max_cycle;Signal;HPM_P1;HPM_P2
2022/08/17 00:00:49;;;;;;;16.02;8.70;;;;;;;22.08;82.18;99783.38;5017443;28;19913;-70
2022/08/17 00:03:22;;;;;;;13.70;8.70;;;;;;;22.54;82.84;99893.00;5007147;28;20063;-70
2022/08/17 00:06:03;;;;;;;15.43;9.27;;;;;;;22.63;82.14;99894.28;5022441;28;20096;-71
2022/08/17 00:08:40;;;;;;;11.70;9.02;;;;;;;22.68;82.76;99872.63;5024831;28;20080;-71
2022/08/17 00:11:13;;;;;;;12.65;8.40;;;;;;;22.13;80.37;99794.66;5022176;28;20083;-71
2022/08/17 00:13:43;;;;;;;23.60;9.73;;;;;;;22.16;79.78;99788.25;5024432;28;20493;-71
2022/08/17 00:16:46;;;;;;;12.18;9.13;;;;;;;22.83;80.46;99887.78;5004572;28;20542;-71
2022/08/17 00:19:15;;;;;;;14.32;9.57;;;;;;;22.10;81.73;99783.25;4998516;28;20049;-71
2022/08/17 00:21:45;;;;;;;20.55;10.32;;;;;;;22.00;82.31;99772.25;5025005;28;20524;-71
2022/08/17 00:24:17;;;;;;;16.45;9.60;;;;;;;22.58;80.33;99874.97;5022165;28;20049;-71
2022/08/17 00:26:46;;;;;;;13.18;9.70;;;;;;;22.25;81.10;99843.91;5020083;28;20635;-70
2022/08/17 00:29:14;;;;;;;12.32;8.75;;;;;;;22.32;80.06;99860.44;5016190;28;20120;-71
2022/08/17 00:31:39;;;;;;;20.65;9.85;;;;;;;21.87;79.85;99784.59;4986761;28;20088;-70
2022/08/17 00:34:07;;;;;;;18.42;10.15;;;;;;;22.36;79.54;99870.03;4989204;28;20522;-70
2022/08/17 00:36:37;;;;;;;15.15;10.23;;;;;;;21.88;79.42;99780.97;4986039;28;20053;-71
2022/08/17 00:39:03;;;;;;;20.60;9.75;;;;;;;21.92;78.65;99791.41;4995080;28;20054;-71
2022/08/17 00:41:29;;;;;;;16.98;9.23;;;;;;;22.44;78.84;99881.13;4997884;28;20054;-71
2022/08/17 00:44:04;;;;;;;11.88;8.98;;;;;;;22.44;78.67;99883.78;4997224;28;20056;-71
2022/08/17 00:46:35;;;;;;;15.65;10.15;;;;;;;22.39;78.68;99896.56;5000803;28;20623;-70
2022/08/17 00:49:02;;;;;;;14.18;9.82;;;;;;;21.69;79.17;99773.16;4971111;28;20549;-72
2022/08/17 00:51:49;;;;;;;13.75;8.93;;;;;;;21.73;79.12;99755.13;4989570;28;20046;-70
2022/08/17 00:54:26;;;;;;;16.05;10.80;;;;;;;21.84;79.63;99774.94;4997618;28;20058;-70
2022/08/17 00:56:57;;;;;;;14.80;8.88;;;;;;;21.63;79.79;99776.16;4996145;28;20049;-70
2022/08/17 00:59:29;;;;;;;14.55;10.05;;;;;;;21.83;79.84;99828.47;4994253;28;20038;-70
2022/08/17 01:01:57;;;;;;;14.40;9.95;;;;;;;21.73;78.97;99793.41;4983878;28;20057;-70
2022/08/17 01:04:26;;;;;;;15.40;9.75;;;;;;;21.60;78.87;99774.50;4978363;28;20057;-70
2022/08/17 01:06:52;;;;;;;21.25;9.90;;;;;;;21.48;80.39;99785.88;4995311;28;20090;-70
2022/08/17 01:09:19;;;;;;;18.63;9.88;;;;;;;22.37;79.59;99903.81;4991883;28;20144;-70
2022/08/17 01:11:51;;;;;;;14.45;9.68;;;;;;;21.55;80.12;99815.78;4978249;28;20050;-70
2022/08/17 01:14:23;;;;;;;13.70;10.38;;;;;;;22.02;80.28;99900.44;4995598;28;20053;-70
2022/08/17 01:16:50;;;;;;;;;;;;;;;21.34;80.17;99796.44;4974731;28;20053;-70
2022/08/17 01:19:23;;;;;;;14.75;10.13;;;;;;;21.51;81.01;99809.72;5017074;28;19980;-70
2022/08/17 01:21:52;;;;;;;17.77;9.88;;;;;;;21.21;81.61;99742.84;4982039;28;20123;-70
2022/08/17 01:24:18;;;;;;;13.07;9.05;;;;;;;21.26;82.53;99765.69;4993566;28;20069;-70
2022/08/17 01:26:46;;;;;;;12.30;9.80;;;;;;;21.35;82.99;99784.78;4975607;28;20084;-71
2022/08/17 01:29:12;;;;;;;14.02;10.70;;;;;;;21.25;82.32;99779.09;4982644;28;20048;-71
2022/08/17 01:31:44;;;;;;;15.15;9.48;;;;;;;21.73;81.20;99851.25;5003606;28;20053;-71
2022/08/17 01:34:12;;;;;;;16.23;10.63;;;;;;;21.16;82.76;99790.28;4985076;28;20029;-71
2022/08/17 01:36:41;;;;;;;17.25;11.00;;;;;;;21.26;80.74;99796.84;4998100;28;20050;-70
2022/08/17 01:39:15;;;;;;;23.08;10.73;;;;;;;21.08;82.86;99798.69;4994891;28;20119;-70
2022/08/17 01:41:44;;;;;;;14.07;10.90;;;;;;;21.56;82.07;99838.84;4978509;28;20057;-70
2022/08/17 01:44:12;;;;;;;17.80;10.73;;;;;;;21.40;81.78;99804.13;4962497;28;20157;-70
2022/08/17 01:46:37;;;;;;;21.77;11.00;;;;;;;21.93;81.25;99888.44;4982817;28;20124;-70
2022/08/17 01:49:09;;;;;;;16.30;9.93;;;;;;;21.14;82.08;99794.81;4984209;28;20042;-70
2022/08/17 01:51:36;;;;;;;12.33;10.57;;;;;;;21.23;82.27;99799.66;4999386;28;20707;-70
2022/08/17 01:54:08;;;;;;;31.13;9.98;;;;;;;21.37;82.59;99841.63;4981827;28;20049;-70
2022/08/17 01:56:37;;;;;;;;;;;;;;;21.64;82.95;99895.38;4998728;28;20080;-70
2022/08/17 01:59:03;;;;;;;15.57;9.55;;;;;;;20.83;84.72;99799.13;5008747;28;19932;-70
2022/08/17 02:01:32;;;;;;;11.90;10.02;;;;;;;21.60;83.50;99893.81;4985607;28;20030;-70
2022/08/17 02:03:58;;;;;;;19.40;11.07;;;;;;;20.95;82.53;99795.78;4997403;28;20070;-70
2022/08/17 02:06:23;;;;;;;16.85;11.35;;;;;;;21.37;82.45;99860.31;4983665;28;20049;-70
2022/08/17 02:08:49;;;;;;;11.48;8.88;;;;;;;21.84;82.72;99907.63;4982437;28;20056;-70
2022/08/17 02:11:18;;;;;;;18.02;11.10;;;;;;;21.15;82.79;99801.91;5003098;28;20050;-70
2022/08/17 02:13:47;;;;;;;13.25;9.02;;;;;;;21.10;83.17;99806.63;4958364;28;20106;-71
2022/08/17 02:16:13;;;;;;;14.10;10.80;;;;;;;20.97;82.38;99779.72;4972326;28;20045;-71
2022/08/17 02:18:39;;;;;;;12.15;9.50;;;;;;;21.05;83.65;99783.72;5000962;28;20052;-71
2022/08/17 02:21:05;;;;;;;10.38;8.98;;;;;;;20.87;83.62;99771.34;4968085;28;20874;-70
2022/08/17 02:23:37;;;;;;;16.55;10.00;;;;;;;20.93;84.47;99781.72;5000954;28;20111;-71
2022/08/17 02:26:04;;;;;;;12.77;8.93;;;;;;;21.31;85.62;99874.00;4993311;28;20045;-70
2022/08/17 02:28:29;;;;;;;26.10;9.35;;;;;;;20.75;83.94;99794.19;4981119;28;20062;-70
2022/08/17 02:31:04;;;;;;;14.82;10.07;;;;;;;20.96;84.16;99789.53;4998571;28;20990;-70
2022/08/17 02:33:31;;;;;;;13.35;9.68;;;;;;;20.91;84.09;99793.38;5002158;28;20050;-70
2022/08/17 02:35:56;;;;;;;19.73;10.82;;;;;;;20.76;83.96;99777.22;4981467;28;20054;-69
2022/08/17 02:38:22;;;;;;;12.55;9.75;;;;;;;21.41;83.57;99888.59;5002416;28;20053;-70
2022/08/17 02:40:48;;;;;;;14.60;9.93;;;;;;;21.05;83.22;99818.41;4987882;28;20533;-69
2022/08/17 02:43:15;;;;;;;12.73;8.80;;;;;;;21.55;84.09;99887.88;5003416;28;20079;-70
2022/08/17 02:45:43;;;;;;;13.55;8.80;;;;;;;21.37;84.59;99862.97;4984081;28;20060;-70
2022/08/17 02:48:09;;;;;;;15.15;10.15;;;;;;;20.50;85.45;99797.22;5000283;28;20046;-69
2022/08/17 02:50:36;;;;;;;13.40;10.48;;;;;;;20.72;84.07;99788.13;5000652;28;20057;-69
2022/08/17 02:53:02;;;;;;;26.00;10.27;;;;;;;21.32;84.71;99897.06;4981166;28;20098;-69
2022/08/17 02:55:31;;;;;;;13.98;9.82;;;;;;;21.01;85.78;99882.66;5002405;28;20042;-69
2022/08/17 02:57:57;;;;;;;11.82;9.48;;;;;;;21.01;85.56;99858.66;5004468;28;20050;-70
2022/08/17 03:00:33;;;;;;;16.15;10.70;;;;;;;20.77;84.69;99810.97;5003364;28;20172;-69
2022/08/17 03:03:01;;;;;;;29.05;10.25;;;;;;;20.66;85.81;99784.00;4992846;28;20129;-70
2022/08/17 03:05:28;;;;;;;13.63;9.93;;;;;;;21.32;86.24;99891.72;4999940;28;20065;-70
2022/08/17 03:07:55;;;;;;;13.63;9.82;;;;;;;20.76;86.56;99787.91;5001871;28;20042;-70
2022/08/17 03:10:31;;;;;;;12.10;10.13;;;;;;;20.69;86.88;99799.84;4977560;28;20034;-70
2022/08/17 03:12:58;;;;;;;15.27;10.10;;;;;;;21.37;87.00;99905.69;5007434;28;20103;-69
2022/08/17 03:15:29;;;;;;;12.27;8.35;;;;;;;20.72;85.47;99815.69;4990991;28;20632;-69
2022/08/17 03:17:56;;;;;;;16.20;10.18;;;;;;;20.73;86.32;99805.88;5003857;28;20121;-69
2022/08/17 03:20:23;;;;;;;18.52;10.48;;;;;;;20.70;85.50;99800.69;4971326;28;20272;-68
2022/08/17 03:22:51;;;;;;;11.45;8.75;;;;;;;20.82;84.66;99821.41;4976940;28;20030;-69
2022/08/17 03:25:24;;;;;;;14.80;10.38;;;;;;;21.23;84.75;99901.94;4994589;28;20141;-69
2022/08/17 03:27:50;;;;;;;12.20;9.93;;;;;;;20.74;84.86;99811.13;5006850;28;20118;-70
2022/08/17 03:30:16;;;;;;;11.30;8.25;;;;;;;21.42;85.34;99912.56;4997768;28;20046;-69
2022/08/17 03:32:47;;;;;;;12.75;9.82;;;;;;;20.54;84.98;99771.28;4988345;28;20137;-70
2022/08/17 03:35:15;;;;;;;12.32;8.93;;;;;;;21.38;86.22;99908.28;4987088;28;20042;-70
2022/08/17 03:37:41;;;;;;;19.08;9.85;;;;;;;20.61;86.71;99791.38;4991387;28;20034;-70
2022/08/17 03:40:08;;;;;;;16.58;9.20;;;;;;;20.76;86.63;99827.91;4993951;28;20037;-70
2022/08/17 03:42:39;;;;;;;14.75;9.60;;;;;;;20.53;85.94;99813.03;4975479;28;20054;-69
2022/08/17 03:45:09;;;;;;;11.73;8.88;;;;;;;20.43;85.46;99796.66;4987635;28;20085;-69
2022/08/17 03:58:49;;;;;;;13.85;8.93;;;;;;;20.75;86.85;99822.66;4989304;28;20072;-70
2022/08/17 04:01:16;;;;;;;14.02;10.32;;;;;;;20.80;86.53;99839.28;4991966;28;20090;-69
2022/08/17 04:03:42;;;;;;;32.10;10.68;;;;;;;20.68;86.50;99818.59;4956025;28;20513;-70
2022/08/17 04:06:08;;;;;;;14.93;10.77;;;;;;;20.68;87.45;99827.44;4985586;28;20560;-69
2022/08/17 04:08:34;;;;;;;12.82;9.90;;;;;;;21.29;87.51;99917.63;4967733;28;20121;-69
2022/08/17 04:11:01;;;;;;;11.52;8.15;;;;;;;20.44;87.54;99822.38;4982069;28;20046;-69
2022/08/17 04:13:28;;;;;;;17.70;10.32;;;;;;;20.60;88.80;99857.16;4984896;28;20532;-69
2022/08/17 04:16:01;;;;;;;14.80;9.68;;;;;;;20.65;87.34;99835.63;4984979;28;20042;-69
2022/08/17 04:18:26;;;;;;;;;;;;;;;20.74;87.46;99835.13;4990840;28;20046;-71
2022/08/17 04:20:52;;;;;;;13.75;9.73;;;;;;;20.79;86.72;99833.09;4986547;28;20001;-70
2022/08/17 04:23:18;;;;;;;14.93;9.07;;;;;;;20.86;86.09;99825.63;4952245;28;20717;-70
2022/08/17 04:25:47;;;;;;;13.85;8.82;;;;;;;20.83;85.64;99820.44;4971847;28;20062;-70
2022/08/17 04:28:15;;;;;;;17.23;10.27;;;;;;;21.45;84.30;99922.22;4997497;28;20122;-69
2022/08/17 04:30:42;;;;;;;18.08;8.85;;;;;;;21.40;83.66;99919.78;4973426;28;20861;-70
2022/08/17 04:33:23;;;;;;;11.90;9.80;;;;;;;21.65;83.56;99931.81;4981756;28;20066;-69
2022/08/17 04:35:51;;;;;;;17.83;10.35;;;;;;;21.24;84.67;99830.75;4983984;28;20054;-70
2022/08/17 04:38:28;;;;;;;22.25;9.27;;;;;;;21.93;84.01;99924.00;4969113;28;20490;-69
2022/08/17 04:43:43;;;;;;;16.05;10.02;;;;;;;21.46;81.87;99818.00;4987185;28;20174;-70
2022/08/17 04:46:14;;;;;;;14.95;10.18;;;;;;;21.99;82.20;99889.91;4985687;28;20045;-69
2022/08/17 04:48:43;;;;;;;18.02;9.90;;;;;;;21.87;81.40;99867.41;4970183;28;20177;-69
2022/08/17 04:51:14;;;;;;;19.42;9.23;;;;;;;21.76;80.32;99806.56;4971408;28;20057;-70
2022/08/17 04:53:44;;;;;;;13.82;10.05;;;;;;;21.81;80.67;99819.66;4984604;28;20506;-70
2022/08/17 04:56:14;;;;;;;17.88;10.98;;;;;;;22.53;76.99;99936.75;4971228;28;20058;-70
2022/08/17 04:58:46;;;;;;;20.88;10.25;;;;;;;22.06;76.27;99836.03;4969879;28;20089;-68
2022/08/17 05:01:13;;;;;;;16.40;10.20;;;;;;;22.92;74.88;99938.06;4981821;28;20042;-69
2022/08/17 05:03:40;;;;;;;16.10;10.55;;;;;;;22.42;75.54;99840.25;4971313;28;20145;-69
2022/08/17 05:06:06;;;;;;;16.85;11.07;;;;;;;22.90;76.33;99918.56;4987319;28;20495;-69
2022/08/17 05:08:34;;;;;;;16.00;10.52;;;;;;;22.67;75.56;99868.22;4987219;28;20049;-69
2022/08/17 05:11:05;;;;;;;16.48;10.15;;;;;;;22.38;76.11;99837.84;4986379;28;20053;-69
2022/08/17 05:13:31;;;;;;;15.57;9.63;;;;;;;23.12;76.27;99944.06;4970580;28;20566;-70
2022/08/17 05:15:59;;;;;;;14.68;10.70;;;;;;;23.18;75.88;99939.22;4984198;28;20093;-70
2022/08/17 05:18:26;;;;;;;14.25;10.35;;;;;;;22.72;74.06;99850.09;4986954;28;20054;-70
2022/08/17 05:20:52;;;;;;;19.75;11.32;;;;;;;22.70;74.36;99810.03;4953664;28;20411;-71
2022/08/17 05:23:20;;;;;;;15.98;10.48;;;;;;;23.04;75.08;99874.97;4968420;28;20046;-70
2022/08/17 05:25:49;;;;;;;17.83;12.98;;;;;;;22.69;76.50;99839.59;4970428;28;20094;-69
2022/08/17 05:28:19;;;;;;;15.95;11.20;;;;;;;23.74;74.60;99949.25;4971223;28;20046;-70
2022/08/17 05:30:48;;;;;;;22.08;12.48;;;;;;;24.03;71.89;99958.16;4976904;28;20105;-71
2022/08/17 05:33:23;;;;;;;20.40;12.75;;;;;;;23.63;70.78;99864.19;4990452;28;20137;-71
2022/08/17 05:35:51;;;;;;;15.20;10.80;;;;;;;24.81;69.24;99966.53;4987553;28;20046;-71
2022/08/17 05:38:20;;;;;;;14.32;11.48;;;;;;;24.53;67.46;99873.59;4990429;28;20050;-72
2022/08/17 05:40:46;;;;;;;13.85;9.45;;;;;;;24.60;66.00;99860.63;4982283;28;20044;-72
2022/08/17 05:43:13;;;;;;;13.13;9.75;;;;;;;24.86;65.41;99856.16;4989270;28;20073;-71
2022/08/17 05:45:44;;;;;;;15.60;10.57;;;;;;;25.93;63.41;99954.47;4958943;28;20049;-72
2022/08/17 05:48:09;;;;;;;14.77;11.00;;;;;;;25.65;63.71;99857.81;4992253;28;20138;-72
2022/08/17 05:50:59;;;;;;;12.68;8.85;;;;;;;26.05;61.02;99843.34;4974902;28;20451;-69
2022/08/17 05:54:12;;;;;;;19.38;9.98;;;;;;;26.28;59.64;99852.41;4996442;28;20049;-69
2022/08/17 05:57:15;;;;;;;24.15;10.07;;;;;;;27.12;61.04;99950.19;4958320;28;20050;-69
2022/08/17 06:00:06;;;;;;;16.77;8.38;;;;;;;26.72;59.54;99851.78;5002958;28;20049;-69
2022/08/17 06:02:49;;;;;;;17.27;8.57;;;;;;;27.59;60.58;99959.16;4988086;28;20050;-69
2022/08/17 06:05:33;;;;;;;12.85;8.90;;;;;;;27.00;60.28;99864.97;4989197;28;20042;-70
2022/08/17 06:08:09;;;;;;;16.75;8.30;;;;;;;27.85;56.36;99962.53;4987054;28;20133;-70
2022/08/17 06:10:46;;;;;;;25.58;9.30;;;;;;;27.41;57.10;99863.56;4967334;28;20038;-70
2022/08/17 06:13:30;;;;;;;14.90;10.38;;;;;;;27.38;56.41;99901.56;4978586;28;21307;-70
2022/08/17 06:16:04;;;;;;;14.93;9.57;;;;;;;27.31;56.35;99860.75;5011259;28;20528;-69
2022/08/17 06:18:55;;;;;;;15.20;8.77;;;;;;;27.65;57.56;99887.72;4984447;28;20055;-69
2022/08/17 06:21:23;;;;;;;15.82;8.05;;;;;;;27.49;56.33;99864.69;5002873;28;20510;-68
2022/08/17 06:24:05;;;;;;;13.27;9.27;;;;;;;27.88;52.65;99918.25;4998471;28;20494;-71
2022/08/17 06:26:36;;;;;;;10.80;7.68;;;;;;;27.34;53.14;99876.66;4977970;28;20057;-71
2022/08/17 06:29:16;;;;;;;15.30;7.78;;;;;;;27.79;53.60;99915.31;4982372;28;20048;-69
2022/08/17 06:31:49;;;;;;;18.45;8.60;;;;;;;27.60;54.63;99885.38;4996861;28;20057;-71
2022/08/17 06:34:16;;;;;;;11.05;7.35;;;;;;;27.53;53.38;99873.38;4982641;28;20089;-69
2022/08/17 06:37:00;;;;;;;12.82;7.88;;;;;;;27.77;54.33;99916.41;4995311;28;20070;-69
2022/08/17 06:39:38;;;;;;;12.48;7.47;;;;;;;27.54;53.68;99891.28;4979247;28;20030;-70
2022/08/17 06:42:31;;;;;;;11.30;8.25;;;;;;;27.74;53.47;99925.56;4998237;28;20049;-69
2022/08/17 06:45:03;;;;;;;16.67;7.00;;;;;;;27.53;52.34;99898.50;4998933;28;20076;-70
2022/08/17 06:47:42;;;;;;;9.60;7.30;;;;;;;27.69;54.80;99921.53;4995120;28;20045;-70
2022/08/17 06:50:37;;;;;;;13.75;7.05;;;;;;;27.05;54.22;99868.16;4997166;28;20071;-69
2022/08/17 06:53:25;;;;;;;12.70;8.75;;;;;;;27.10;55.37;99874.03;4997596;28;20696;-69
2022/08/17 06:56:13;;;;;;;16.55;8.45;;;;;;;27.64;56.05;99964.19;4980142;28;20838;-70
2022/08/17 06:58:42;;;;;;;16.27;9.95;;;;;;;27.13;56.62;99849.53;4995186;28;20471;-69
2022/08/17 07:01:30;;;;;;;13.70;8.80;;;;;;;28.02;56.53;99966.56;4999223;28;20072;-72
2022/08/17 07:04:18;;;;;;;18.45;8.68;;;;;;;27.21;54.59;99852.53;5003216;28;20046;-72
2022/08/17 07:06:52;;;;;;;19.83;9.98;;;;;;;27.71;56.29;99968.13;5000983;28;20049;-72
2022/08/17 07:09:27;;;;;;;14.27;8.93;;;;;;;27.12;54.02;99880.16;5005750;28;20049;-73
2022/08/17 07:12:16;;;;;;;14.82;7.82;;;;;;;27.77;55.32;99964.94;4983169;28;20045;-71
2022/08/17 07:14:50;;;;;;;19.30;7.43;;;;;;;27.09;55.80;99861.53;4988196;28;20044;-71
2022/08/17 07:17:18;;;;;;;20.80;9.38;;;;;;;27.70;54.71;99969.13;4999013;28;20049;-72
2022/08/17 07:19:46;;;;;;;16.20;8.80;;;;;;;27.79;52.44;99971.94;5002527;28;20084;-72
2022/08/17 07:22:29;;;;;;;22.02;8.40;;;;;;;27.69;51.29;99964.69;5004027;28;20033;-72
2022/08/17 07:24:59;;;;;;;9.57;7.07;;;;;;;27.80;52.14;99962.00;5001348;28;20073;-71
2022/08/17 07:27:27;;;;;;;9.65;7.57;;;;;;;28.09;51.53;99966.94;5003611;28;20046;-72
2022/08/17 07:30:15;;;;;;;19.48;6.43;;;;;;;27.47;50.53;99869.34;5003305;28;20168;-72
2022/08/17 07:32:52;;;;;;;12.63;8.07;;;;;;;27.65;49.52;99868.84;4987508;28;20519;-72
2022/08/17 07:35:31;;;;;;;17.00;6.22;;;;;;;27.91;48.82;99902.72;5005022;28;20046;-71
2022/08/17 07:38:16;;;;;;;9.10;7.07;;;;;;;28.27;49.72;99961.91;4999254;28;20394;-78
2022/08/17 07:41:03;;;;;;;8.50;7.13;;;;;;;27.57;51.62;99899.13;4980063;28;20025;-79
2022/08/17 07:43:38;;;;;;;11.27;7.07;;;;;;;27.34;52.22;99890.16;4981183;28;20041;-76
2022/08/17 07:49:18;;;;;;;11.00;7.30;;;;;;;27.49;51.70;99902.44;5000389;28;20104;-76
2022/08/17 07:51:47;;;;;;;11.45;7.60;;;;;;;27.64;50.50;99880.63;4980629;28;20065;-73
2022/08/17 07:54:21;;;;;;;18.38;6.90;;;;;;;28.42;49.29;99966.03;4999588;28;20049;-71
2022/08/17 07:56:52;;;;;;;16.52;8.70;;;;;;;27.69;51.09;99868.47;4982742;28;20080;-69
2022/08/17 07:59:22;;;;;;;8.13;6.00;;;;;;;28.16;50.25;99955.50;4981494;28;20041;-74
2022/08/17 08:01:54;;;;;;;12.30;9.45;;;;;;;28.05;49.29;99877.31;4996006;28;20030;-69
2022/08/17 08:04:41;;;;;;;11.80;9.63;;;;;;;28.17;49.08;99895.19;4999618;28;20037;-72
2022/08/17 08:07:19;;;;;;;8.63;6.65;;;;;;;27.77;48.59;99857.94;5001825;28;20053;-76
2022/08/17 08:09:58;;;;;;;18.05;8.23;;;;;;;28.23;49.95;99950.47;5000328;28;20498;-68
2022/08/17 08:12:34;;;;;;;10.38;6.88;;;;;;;27.71;49.93;99861.13;4978736;28;20128;-71
2022/08/17 08:15:08;;;;;;;15.20;8.77;;;;;;;27.92;50.53;99901.72;4982069;28;20104;-69
2022/08/17 08:17:46;;;;;;;13.25;8.32;;;;;;;28.27;49.00;99956.50;4997640;28;20050;-69
2022/08/17 08:20:13;;;;;;;21.40;6.80;;;;;;;27.87;48.90;99855.38;5000002;28;20042;-70
2022/08/17 08:22:46;;;;;;;10.80;6.97;;;;;;;28.75;46.93;99961.56;4979180;28;20042;-68
2022/08/17 08:25:21;;;;;;;8.55;5.85;;;;;;;28.70;47.06;99936.78;4982217;28;20420;-70
2022/08/17 08:28:05;;;;;;;8.43;5.90;;;;;;;28.89;44.98;99942.34;5001190;28;20108;-70
2022/08/17 08:30:38;;;;;;;8.55;5.88;;;;;;;29.08;45.66;99948.94;4992754;28;20042;-67
2022/08/17 08:33:16;;;;;;;10.93;6.72;;;;;;;29.11;46.02;99948.69;4980204;28;20113;-70
2022/08/17 08:36:09;;;;;;;10.55;5.82;;;;;;;28.84;45.33;99893.28;4978917;28;20042;-71
2022/08/17 08:38:52;;;;;;;13.07;8.43;;;;;;;29.00;46.80;99941.47;4960446;28;20041;-68
2022/08/17 08:41:28;;;;;;;20.50;5.93;;;;;;;29.01;44.93;99851.34;4961523;28;20054;-68
2022/08/17 08:44:17;;;;;;;8.27;6.65;;;;;;;29.29;45.12;99940.84;4941036;28;20035;-68
2022/08/17 08:47:04;;;;;;;10.10;6.55;;;;;;;28.68;44.71;99844.25;4968155;28;20063;-68
2022/08/17 08:49:45;;;;;;;10.95;6.55;;;;;;;28.56;46.98;99851.53;4964488;28;20060;-68
2022/08/17 08:52:37;;;;;;;11.65;7.28;;;;;;;29.27;46.45;99929.28;4991611;28;20112;-68
2022/08/17 08:55:25;;;;;;;8.70;6.75;;;;;;;28.94;44.32;99833.91;4975865;28;20062;-68
2022/08/17 08:57:58;;;;;;;19.20;7.00;;;;;;;29.20;44.61;99878.50;4975926;28;20126;-68
2022/08/17 09:00:26;;;;;;;10.45;7.65;;;;;;;29.02;45.86;99818.75;4961011;28;20050;-68
2022/08/17 09:03:23;;;;;;;9.43;7.60;;;;;;;28.55;48.27;99834.50;4960997;28;20054;-68
2022/08/17 09:05:51;;;;;;;8.30;6.60;;;;;;;28.90;45.97;99836.03;4963042;28;20095;-68
2022/08/17 09:08:31;;;;;;;8.00;6.32;;;;;;;29.97;42.92;99927.72;4978023;28;20050;-69
2022/08/17 09:11:09;;;;;;;8.32;6.95;;;;;;;29.65;42.60;99836.75;4981591;28;20049;-69
2022/08/17 09:13:50;;;;;;;11.05;6.70;;;;;;;29.31;44.38;99826.19;4977869;28;20030;-69
2022/08/17 09:16:44;;;;;;;28.67;7.18;;;;;;;29.57;45.71;99831.16;4981290;28;20657;-68
2022/08/17 09:19:42;;;;;;;8.35;7.25;;;;;;;30.34;41.70;99916.31;4979229;28;20137;-69
2022/08/17 09:22:22;;;;;;;9.70;7.03;;;;;;;30.27;43.11;99845.63;4982288;28;20039;-68
2022/08/17 09:24:56;;;;;;;8.57;5.90;;;;;;;30.58;43.12;99859.03;4977726;28;20073;-69
2022/08/17 09:27:31;;;;;;;8.48;7.57;;;;;;;30.53;41.03;99799.03;4963209;28;20080;-69
2022/08/17 09:30:06;;;;;;;9.20;7.65;;;;;;;30.83;40.97;99855.75;4980101;28;20042;-69
2022/08/17 09:32:42;;;;;;;8.95;6.93;;;;;;;30.72;40.12;99836.97;4971854;28;20451;-68
2022/08/17 09:35:19;;;;;;;8.18;6.90;;;;;;;29.96;40.61;99667.13;4983574;28;20342;-67
2022/08/17 09:38:01;;;;;;;11.75;7.05;;;;;;;31.18;42.34;99848.03;4984964;28;20090;-68
2022/08/17 09:41:25;;;;;;;11.05;7.47;;;;;;;31.15;41.32;99824.78;4980289;28;20218;-68
2022/08/17 09:43:59;;;;;;;10.70;6.68;;;;;;;31.92;41.78;99912.31;4927982;28;20114;-69
2022/08/17 09:46:35;;;;;;;10.27;6.88;;;;;;;31.65;37.66;99837.19;4961098;28;20478;-67
2022/08/17 09:49:09;;;;;;;14.43;6.22;;;;;;;31.67;40.21;99816.19;4982697;28;20054;-70
2022/08/17 09:51:43;;;;;;;8.60;6.07;;;;;;;31.93;39.96;99811.75;4983202;28;21399;-67
2022/08/17 09:54:20;;;;;;;11.82;7.18;;;;;;;31.93;40.32;99827.19;4978581;28;20107;-68
2022/08/17 09:56:58;;;;;;;15.27;6.95;;;;;;;32.42;39.28;99871.19;4984060;28;20141;-68
2022/08/17 09:59:49;;;;;;;9.73;5.40;;;;;;;32.76;37.02;99914.84;4981770;28;20050;-75
2022/08/17 10:02:18;;;;;;;8.98;4.80;;;;;;;33.14;35.94;99914.69;4981485;28;20053;-74
2022/08/17 10:04:44;;;;;;;6.43;4.70;;;;;;;32.85;34.75;99812.50;4979746;28;20034;-71
2022/08/17 10:07:21;;;;;;;8.73;5.68;;;;;;;33.67;35.13;99900.13;4974258;28;20403;-71
2022/08/17 10:10:11;;;;;;;10.00;6.75;;;;;;;34.00;35.93;99909.28;4964611;28;20486;-73
2022/08/17 10:13:12;;;;;;;7.25;5.03;;;;;;;34.00;34.54;99895.66;4979500;28;20056;-73
2022/08/17 10:15:53;;;;;;;8.35;5.75;;;;;;;34.24;34.09;99902.25;4965523;28;20128;-74
2022/08/17 10:18:24;;;;;;;7.50;5.63;;;;;;;33.96;34.60;99815.31;4983114;28;20050;-73
2022/08/17 10:26:35;;;;;;;7.18;5.43;;;;;;;34.87;34.33;99909.88;4984015;28;20121;-73
2022/08/17 10:29:11;;;;;;;11.35;5.25;;;;;;;34.42;33.78;99829.41;4983567;28;20034;-73
2022/08/17 10:31:44;;;;;;;11.50;5.47;;;;;;;34.20;34.11;99808.25;4964051;28;20056;-73
2022/08/17 10:34:36;;;;;;;6.85;5.50;;;;;;;34.56;34.39;99846.97;4964572;28;20139;-74
2022/08/17 10:37:27;;;;;;;6.53;5.18;;;;;;;34.92;33.52;99870.34;4985309;28;20042;-73
2022/08/17 10:40:09;;;;;;;16.25;7.15;;;;;;;34.68;34.70;99845.63;4986433;28;20061;-73
2022/08/17 10:42:49;;;;;;;;;;;;;;;34.16;32.42;99802.31;4964276;28;20097;-75
2022/08/17 10:45:25;;;;;;;7.32;6.28;;;;;;;34.35;34.43;99835.69;4982337;28;20294;-74
2022/08/17 10:48:30;;;;;;;8.80;5.10;;;;;;;35.32;34.53;99899.47;4980806;28;20129;-72
2022/08/17 10:50:58;;;;;;;7.55;5.70;;;;;;;34.55;32.42;99798.91;4981630;28;20047;-74
2022/08/17 10:53:39;;;;;;;5.68;4.97;;;;;;;35.14;32.43;99866.94;4968668;28;20137;-73
2022/08/17 10:56:11;;;;;;;8.15;5.43;;;;;;;34.97;31.79;99811.53;4967735;28;20498;-74
2022/08/17 10:58:57;;;;;;;5.85;5.00;;;;;;;34.81;32.98;99868.81;4985981;28;20046;-73
2022/08/17 11:01:32;;;;;;;11.57;7.45;;;;;;;34.65;32.45;99826.91;4983052;28;20045;-72
2022/08/17 11:04:04;;;;;;;8.68;6.40;;;;;;;35.47;33.41;99866.84;4967888;28;20050;-73
2022/08/17 11:07:01;;;;;;;7.47;5.32;;;;;;;35.21;31.75;99876.13;4984728;28;20100;-73
2022/08/17 11:10:01;;;;;;;9.98;5.47;;;;;;;34.85;32.95;99805.56;4982414;28;20053;-73
2022/08/17 11:12:47;;;;;;;11.20;6.15;;;;;;;35.11;33.53;99867.28;4989009;28;20065;-73
2022/08/17 11:15:52;;;;;;;8.25;6.20;;;;;;;33.81;32.99;99812.41;4982727;28;20050;-73
2022/08/17 11:18:44;;;;;;;7.40;5.63;;;;;;;34.25;33.00;99806.75;4896075;28;20133;-73
2022/08/17 11:21:38;;;;;;;9.52;5.07;;;;;;;34.19;33.86;99779.34;4984153;28;20046;-73
2022/08/17 11:24:37;;;;;;;8.98;5.57;;;;;;;34.43;33.33;99857.50;4966249;28;20132;-73
2022/08/17 11:27:08;;;;;;;8.57;6.75;;;;;;;33.52;35.40;99839.09;4980941;28;20319;-73
2022/08/17 11:29:50;;;;;;;7.35;5.50;;;;;;;33.19;34.50;99760.91;4964406;28;20041;-73
2022/08/17 11:32:37;;;;;;;8.38;6.63;;;;;;;33.42;36.13;99807.44;4980996;28;20077;-73
2022/08/17 11:35:21;;;;;;;9.05;6.95;;;;;;;32.64;37.17;99788.41;4979833;28;20502;-73
2022/08/17 11:38:05;;;;;;;8.75;6.57;;;;;;;32.55;35.78;99754.03;4979321;28;20061;-73
2022/08/17 11:40:55;;;;;;;7.30;6.25;;;;;;;32.40;34.69;99761.84;4963885;28;20137;-74
2022/08/17 11:43:24;;;;;;;8.07;6.35;;;;;;;32.72;34.86;99840.06;4981568;28;20070;-73
2022/08/17 11:46:15;;;;;;;8.38;6.32;;;;;;;32.21;35.78;99756.56;4985583;28;20061;-73
2022/08/17 11:51:59;;;;;;;10.05;6.65;;;;;;;32.27;37.08;99753.25;4979937;28;20133;-73
2022/08/17 11:54:34;;;;;;;11.07;6.35;;;;;;;32.48;37.26;99820.81;4980439;28;20042;-73
2022/08/17 11:57:26;;;;;;;6.88;5.45;;;;;;;32.24;38.85;99768.00;4962017;28;20061;-74
2022/08/17 12:00:10;;;;;;;7.30;5.90;;;;;;;32.33;35.81;99741.75;4979256;28;20041;-73
2022/08/17 12:02:47;;;;;;;7.40;6.00;;;;;;;32.80;35.38;99823.84;4964334;28;20026;-73
2022/08/17 12:05:26;;;;;;;8.77;5.55;;;;;;;32.64;35.63;99801.09;4963176;28;20050;-73
2022/08/17 12:08:06;;;;;;;8.27;5.78;;;;;;;32.37;35.80;99726.84;4962727;28;20049;-73
2022/08/17 12:10:39;;;;;;;6.82;6.10;;;;;;;33.14;34.41;99803.22;4982909;28;20498;-73
2022/08/17 12:13:11;;;;;;;6.85;5.85;;;;;;;32.43;35.74;99733.50;4964057;28;20578;-73
2022/08/17 12:15:48;;;;;;;7.13;4.90;;;;;;;31.99;37.45;99692.75;4963389;28;20333;-73
2022/08/17 12:18:22;;;;;;;7.47;5.63;;;;;;;32.59;35.98;99794.31;4978603;28;20062;-73
2022/08/17 12:21:15;;;;;;;10.38;7.03;;;;;;;32.36;35.97;99719.72;4983392;28;20048;-73
2022/08/17 12:24:09;;;;;;;6.55;5.80;;;;;;;32.95;34.68;99810.53;4975263;28;20058;-73
2022/08/17 12:26:35;;;;;;;9.13;6.60;;;;;;;32.64;36.54;99790.25;4972894;28;20065;-73
2022/08/17 12:29:15;;;;;;;7.97;5.88;;;;;;;32.73;36.99;99795.59;4946134;28;20244;-73